createdAt,value
2022-12-31T00:01:08.618Z,1.10
2022-12-31T00:03:35.009Z,1.10
2022-12-31T00:06:01.385Z,1.10
2022-12-31T00:08:27.833Z,1.10
2022-12-31T00:10:54.140Z,1.00
2022-12-31T00:13:21.452Z,1.07
2022-12-31T00:15:47.716Z,1.00
2022-12-31T00:18:13.983Z,1.00
2022-12-31T00:20:41.848Z,0.90
2022-12-31T00:23:10.011Z,1.07
2022-12-31T00:25:36.549Z,1.03
2022-12-31T00:28:04.918Z,0.73
2022-12-31T00:30:31.501Z,1.00
2022-12-31T00:32:57.835Z,0.90
2022-12-31T00:35:24.102Z,1.00
2022-12-31T00:37:52.307Z,1.00
2022-12-31T00:40:18.576Z,0.80
2022-12-31T00:42:44.856Z,0.80
2022-12-31T00:45:11.307Z,0.80
2022-12-31T00:47:37.812Z,0.70
2022-12-31T00:50:04.483Z,0.80
2022-12-31T00:52:30.739Z,0.90
2022-12-31T00:54:58.015Z,0.90
2022-12-31T00:57:24.301Z,0.70
2022-12-31T00:59:50.542Z,0.77
2022-12-31T01:02:17.016Z,0.70
2022-12-31T01:04:44.493Z,0.70
2022-12-31T01:07:10.898Z,0.80
2022-12-31T01:09:37.190Z,0.70
2022-12-31T01:12:03.732Z,0.73
2022-12-31T01:14:32.511Z,0.60
2022-12-31T01:16:58.807Z,0.50
2022-12-31T01:19:29.208Z,0.60
2022-12-31T01:21:56.257Z,0.60
2022-12-31T01:24:23.081Z,0.53
2022-12-31T01:26:50.725Z,0.60
2022-12-31T01:29:17.048Z,0.50
2022-12-31T01:31:43.495Z,0.60
2022-12-31T01:34:09.814Z,0.60
2022-12-31T01:36:37.021Z,0.60
2022-12-31T01:39:05.584Z,0.53
2022-12-31T01:41:35.385Z,0.50
2022-12-31T01:44:24.566Z,0.70
2022-12-31T01:46:58.159Z,0.50
2022-12-31T01:49:58.142Z,0.60
2022-12-31T01:52:30.283Z,0.70
2022-12-31T01:55:03.285Z,0.57
2022-12-31T01:57:30.711Z,0.60
2022-12-31T01:59:59.573Z,0.67
2022-12-31T02:02:26.212Z,0.70
2022-12-31T02:04:57.650Z,0.70
2022-12-31T02:07:24.485Z,0.70
2022-12-31T02:09:51.733Z,0.60
2022-12-31T02:12:18.051Z,0.80
2022-12-31T02:14:48.631Z,0.70
2022-12-31T02:17:43.092Z,0.67
2022-12-31T02:20:25.104Z,0.77
2022-12-31T02:23:33.394Z,0.70
2022-12-31T02:26:08.416Z,0.70
2022-12-31T02:28:53.793Z,0.70
2022-12-31T02:31:26.077Z,0.83
2022-12-31T02:34:00.530Z,0.73
2022-12-31T02:36:32.521Z,0.80
2022-12-31T02:38:59.379Z,0.80
2022-12-31T02:41:44.080Z,0.80
2022-12-31T02:44:30.055Z,0.87
2022-12-31T02:47:19.188Z,0.87
2022-12-31T02:50:04.247Z,0.90
2022-12-31T02:52:48.903Z,0.93
2022-12-31T02:55:24.824Z,0.87
2022-12-31T02:58:10.345Z,1.00
2022-12-31T03:01:00.896Z,1.03
2022-12-31T03:03:27.703Z,1.00
2022-12-31T03:05:56.327Z,1.10
2022-12-31T03:08:24.862Z,1.10
2022-12-31T03:10:51.463Z,1.00
2022-12-31T03:13:17.900Z,1.00
2022-12-31T03:15:44.200Z,1.00
2022-12-31T03:18:13.820Z,1.10
2022-12-31T03:21:01.847Z,1.17
2022-12-31T03:23:42.575Z,1.20
2022-12-31T03:26:11.548Z,1.10
2022-12-31T03:28:47.489Z,1.17
2022-12-31T03:31:14.085Z,1.10
2022-12-31T03:33:41.621Z,1.23
2022-12-31T03:36:14.684Z,1.17
2022-12-31T03:38:41.327Z,1.20
2022-12-31T03:41:10.705Z,1.10
2022-12-31T03:43:37.036Z,1.13
2022-12-31T03:46:03.438Z,1.10
2022-12-31T03:48:29.769Z,1.07
2022-12-31T03:50:56.091Z,1.10
2022-12-31T03:53:22.530Z,1.10
2022-12-31T03:55:55.201Z,1.10
2022-12-31T03:58:21.905Z,1.00
2022-12-31T04:00:48.985Z,1.00
2022-12-31T04:03:15.411Z,1.07
2022-12-31T04:05:41.752Z,1.00
2022-12-31T04:08:08.080Z,1.00
2022-12-31T04:10:34.436Z,1.27
2022-12-31T04:13:04.168Z,1.07
2022-12-31T04:15:30.449Z,1.40
2022-12-31T04:17:56.845Z,1.30
2022-12-31T04:20:23.147Z,1.23
2022-12-31T04:22:49.516Z,1.40
2022-12-31T04:25:15.964Z,1.33
2022-12-31T04:27:43.482Z,1.30
2022-12-31T04:30:10.763Z,1.37
2022-12-31T04:32:37.070Z,1.40
2022-12-31T04:35:03.656Z,1.30
2022-12-31T04:37:29.960Z,1.20
2022-12-31T04:40:01.878Z,1.47
2022-12-31T04:42:31.646Z,1.60
2022-12-31T04:44:57.942Z,1.30
2022-12-31T04:47:24.306Z,1.30
2022-12-31T04:49:50.707Z,1.47
2022-12-31T04:52:17.035Z,1.40
2022-12-31T04:54:43.343Z,1.60
2022-12-31T04:57:09.654Z,1.30
2022-12-31T04:59:35.972Z,1.70
2022-12-31T05:02:02.433Z,1.40
2022-12-31T05:04:29.260Z,1.43
2022-12-31T05:06:55.590Z,1.40
2022-12-31T05:09:24.115Z,1.37
2022-12-31T05:11:50.537Z,1.30
2022-12-31T05:14:17.140Z,1.43
2022-12-31T05:16:43.466Z,1.10
2022-12-31T05:19:09.933Z,1.20
2022-12-31T05:21:36.433Z,1.13
2022-12-31T05:24:02.832Z,1.20
2022-12-31T05:26:29.135Z,1.10
2022-12-31T05:28:56.464Z,1.10
2022-12-31T05:31:22.876Z,1.10
2022-12-31T05:33:49.143Z,1.20
2022-12-31T05:36:15.717Z,1.17
2022-12-31T05:38:42.171Z,1.17
2022-12-31T05:41:08.531Z,1.27
2022-12-31T05:43:34.976Z,1.10
2022-12-31T05:46:02.973Z,1.20
2022-12-31T05:48:29.949Z,1.10
2022-12-31T05:50:56.273Z,1.07
2022-12-31T05:53:22.782Z,1.03
2022-12-31T05:55:49.303Z,1.23
2022-12-31T05:58:16.113Z,1.00
2022-12-31T06:00:42.515Z,1.20
2022-12-31T06:03:09.793Z,1.10
2022-12-31T06:05:39.399Z,1.23
2022-12-31T06:08:05.726Z,1.20
2022-12-31T06:10:31.996Z,1.30
2022-12-31T06:12:58.259Z,1.20
2022-12-31T06:15:24.667Z,1.23
2022-12-31T06:17:50.990Z,1.23
2022-12-31T06:20:17.756Z,1.20
2022-12-31T06:22:44.077Z,1.03
2022-12-31T06:25:10.598Z,1.10
2022-12-31T06:27:36.929Z,1.00
2022-12-31T06:30:03.456Z,1.40
2022-12-31T06:32:29.812Z,1.10
2022-12-31T06:34:56.118Z,1.23
2022-12-31T06:37:22.386Z,1.10
2022-12-31T06:39:48.900Z,1.30
2022-12-31T06:42:15.191Z,1.07
2022-12-31T06:44:41.529Z,0.90
2022-12-31T06:47:07.941Z,1.40
2022-12-31T06:49:34.223Z,1.10
2022-12-31T06:52:00.593Z,1.70
2022-12-31T06:54:26.889Z,1.10
2022-12-31T06:56:53.526Z,1.17
2022-12-31T06:59:29.137Z,0.90
2022-12-31T07:02:20.524Z,0.90
2022-12-31T07:04:52.694Z,1.10
2022-12-31T07:07:40.343Z,1.07
2022-12-31T07:10:35.396Z,1.40
2022-12-31T07:13:36.164Z,0.90
2022-12-31T07:16:11.371Z,1.10
2022-12-31T07:18:49.556Z,1.40
2022-12-31T07:21:19.123Z,1.00
2022-12-31T07:23:45.731Z,0.93
2022-12-31T07:26:40.839Z,1.00
2022-12-31T07:29:19.377Z,1.00
2022-12-31T07:32:20.284Z,1.00
2022-12-31T07:35:08.401Z,0.93
2022-12-31T07:37:53.290Z,1.30
2022-12-31T07:40:28.907Z,1.10
2022-12-31T07:43:31.821Z,1.37
2022-12-31T07:46:15.792Z,0.97
2022-12-31T07:48:42.499Z,1.10
2022-12-31T07:51:10.772Z,0.90
2022-12-31T07:53:37.687Z,1.10
2022-12-31T07:56:07.142Z,1.20
2022-12-31T07:58:39.438Z,1.10
2022-12-31T08:01:12.555Z,1.13
2022-12-31T08:03:54.624Z,1.27
2022-12-31T08:06:31.304Z,1.20
2022-12-31T08:09:25.793Z,1.10
2022-12-31T08:11:59.918Z,1.30
2022-12-31T08:14:28.432Z,1.20
2022-12-31T08:16:55.879Z,1.67
2022-12-31T08:19:30.599Z,1.43
2022-12-31T08:22:27.678Z,1.30
2022-12-31T08:25:16.499Z,1.57
2022-12-31T08:28:07.630Z,1.70
2022-12-31T08:31:00.780Z,1.50
2022-12-31T08:33:41.581Z,1.67
2022-12-31T08:36:41.098Z,1.60
2022-12-31T08:39:38.565Z,1.40
2022-12-31T08:42:17.378Z,1.70
2022-12-31T08:44:59.802Z,1.50
2022-12-31T08:47:47.290Z,1.53
2022-12-31T08:50:18.395Z,1.57
2022-12-31T08:52:45.771Z,1.37
2022-12-31T08:55:17.533Z,1.57
2022-12-31T08:58:08.487Z,1.60
2022-12-31T09:00:37.265Z,1.50
2022-12-31T09:03:22.306Z,1.40
2022-12-31T09:05:58.728Z,1.53
2022-12-31T09:08:45.378Z,1.50
2022-12-31T09:11:32.214Z,1.80
2022-12-31T09:14:04.834Z,1.63
2022-12-31T09:17:04.471Z,1.60
2022-12-31T09:19:30.795Z,1.60
2022-12-31T09:21:57.396Z,1.43
2022-12-31T09:24:23.907Z,1.60
2022-12-31T09:27:02.512Z,1.80
2022-12-31T09:29:43.468Z,1.90
2022-12-31T09:32:29.577Z,1.63
2022-12-31T09:35:04.030Z,1.67
2022-12-31T09:37:42.246Z,1.40
2022-12-31T09:40:40.487Z,1.50
2022-12-31T09:43:28.005Z,1.53
2022-12-31T09:46:22.406Z,1.67
2022-12-31T09:49:16.322Z,1.33
2022-12-31T09:51:42.625Z,1.50
2022-12-31T09:54:28.877Z,1.60
2022-12-31T09:57:01.121Z,1.50
2022-12-31T09:59:41.004Z,1.50
2022-12-31T10:02:27.808Z,1.70
2022-12-31T10:05:32.953Z,1.40
2022-12-31T10:08:10.788Z,1.83
2022-12-31T10:10:51.892Z,1.43
2022-12-31T10:13:48.508Z,1.30
2022-12-31T10:16:51.917Z,1.30
2022-12-31T10:19:42.480Z,1.57
2022-12-31T10:22:45.721Z,1.23
2022-12-31T10:25:21.174Z,1.77
2022-12-31T10:28:23.024Z,1.70
2022-12-31T10:31:15.669Z,1.57
2022-12-31T10:34:02.702Z,1.50
2022-12-31T10:36:32.003Z,1.50
2022-12-31T10:39:15.343Z,1.40
2022-12-31T10:42:05.588Z,1.70
2022-12-31T10:44:47.279Z,1.50
2022-12-31T10:47:19.653Z,1.53
2022-12-31T10:50:11.058Z,1.67
2022-12-31T10:52:49.063Z,1.50
2022-12-31T10:55:45.706Z,1.40
2022-12-31T10:58:34.918Z,1.47
2022-12-31T11:01:21.557Z,1.50
2022-12-31T11:04:21.879Z,1.40
2022-12-31T11:07:17.594Z,1.50
2022-12-31T11:10:12.549Z,1.60
2022-12-31T11:12:52.315Z,1.63
2022-12-31T11:15:38.458Z,1.47
2022-12-31T11:18:15.385Z,1.90
2022-12-31T11:21:04.321Z,1.60
2022-12-31T11:24:14.374Z,1.50
2022-12-31T11:26:58.808Z,1.53
2022-12-31T11:29:43.485Z,1.40
2022-12-31T11:32:25.010Z,1.80
2022-12-31T11:34:58.795Z,1.50
2022-12-31T11:37:40.557Z,1.90
2022-12-31T11:40:32.306Z,1.60
2022-12-31T11:43:04.768Z,1.70
2022-12-31T11:45:53.968Z,1.87
2022-12-31T11:48:32.811Z,1.70
2022-12-31T11:51:11.049Z,1.70
2022-12-31T11:53:57.442Z,1.80
2022-12-31T11:56:28.159Z,1.53
2022-12-31T11:58:56.116Z,1.60
2022-12-31T12:01:32.422Z,1.60
2022-12-31T12:03:59.321Z,1.47
2022-12-31T12:06:30.759Z,1.60
2022-12-31T12:09:03.719Z,1.63
2022-12-31T12:11:35.096Z,2.43
2022-12-31T12:14:01.905Z,1.60
2022-12-31T12:16:28.499Z,2.00
2022-12-31T12:19:03.155Z,1.70
2022-12-31T12:21:29.876Z,1.67
2022-12-31T12:24:24.915Z,1.87
2022-12-31T12:26:51.529Z,1.90
2022-12-31T12:29:21.633Z,1.57
2022-12-31T12:31:57.556Z,1.70
2022-12-31T12:34:32.720Z,1.80
2022-12-31T12:37:03.423Z,1.60
2022-12-31T12:39:32.664Z,1.97
2022-12-31T12:42:03.564Z,1.73
2022-12-31T12:44:30.654Z,1.90
2022-12-31T12:46:58.234Z,1.87
2022-12-31T12:49:31.515Z,1.83
2022-12-31T12:52:31.912Z,1.40
2022-12-31T12:55:19.437Z,1.60
2022-12-31T12:58:04.509Z,1.80
2022-12-31T13:01:02.839Z,1.90
2022-12-31T13:04:31.909Z,1.60
2022-12-31T13:06:48.294Z,1.47
2022-12-31T13:09:44.496Z,2.07
2022-12-31T13:12:17.523Z,1.80
2022-12-31T13:15:13.225Z,1.50
2022-12-31T13:17:59.975Z,1.17
2022-12-31T13:20:49.476Z,1.93
2022-12-31T13:23:26.522Z,1.53
2022-12-31T13:26:27.236Z,1.53
2022-12-31T13:28:55.713Z,1.40
2022-12-31T13:31:30.727Z,1.60
2022-12-31T13:34:04.385Z,1.57
2022-12-31T13:36:35.199Z,1.43
2022-12-31T13:39:05.453Z,1.90
2022-12-31T13:41:38.645Z,1.37
2022-12-31T13:44:17.914Z,1.40
2022-12-31T13:46:57.831Z,1.50
2022-12-31T13:49:42.052Z,1.57
2022-12-31T13:52:27.274Z,1.33
2022-12-31T13:55:20.277Z,1.40
2022-12-31T13:57:54.299Z,1.60
2022-12-31T14:00:25.170Z,1.60
2022-12-31T14:03:19.659Z,1.40
2022-12-31T14:05:51.476Z,1.67
2022-12-31T14:08:17.897Z,1.50
2022-12-31T14:11:12.248Z,1.40
2022-12-31T14:13:57.331Z,1.50
2022-12-31T14:16:45.624Z,1.60
2022-12-31T14:19:41.026Z,1.50
2022-12-31T14:22:19.629Z,1.30
2022-12-31T14:24:49.841Z,1.40
2022-12-31T14:27:28.245Z,1.50
2022-12-31T14:29:59.970Z,1.40
2022-12-31T14:32:46.780Z,1.93
2022-12-31T14:35:31.269Z,1.30
2022-12-31T14:38:25.552Z,1.50
2022-12-31T14:41:09.850Z,1.63
2022-12-31T14:43:57.208Z,1.27
2022-12-31T14:46:57.617Z,1.50
2022-12-31T14:49:41.694Z,1.80
2022-12-31T14:52:35.682Z,1.33
2022-12-31T14:55:14.974Z,1.50
2022-12-31T14:58:17.131Z,1.47
2022-12-31T15:00:39.009Z,1.40
2022-12-31T15:03:06.630Z,1.40
2022-12-31T15:05:37.811Z,1.33
2022-12-31T15:08:06.830Z,1.40
2022-12-31T15:10:40.243Z,2.00
2022-12-31T15:13:27.681Z,2.37
2022-12-31T15:16:22.676Z,1.60
2022-12-31T15:19:03.251Z,1.70
2022-12-31T15:21:39.534Z,1.90
2022-12-31T15:24:21.364Z,1.63
2022-12-31T15:27:00.121Z,1.87
2022-12-31T15:29:43.788Z,2.07
2022-12-31T15:32:20.504Z,1.97
2022-12-31T15:34:46.871Z,3.77
2022-12-31T15:37:34.929Z,8.13
2022-12-31T15:40:24.787Z,3.90
2022-12-31T15:43:13.839Z,3.60
2022-12-31T15:45:42.004Z,2.90
2022-12-31T15:48:16.365Z,2.33
2022-12-31T15:50:43.992Z,2.30
2022-12-31T15:53:26.321Z,1.90
2022-12-31T15:55:54.672Z,1.77
2022-12-31T15:58:25.737Z,1.90
2022-12-31T16:01:21.839Z,1.97
2022-12-31T16:04:14.350Z,1.90
2022-12-31T16:06:43.747Z,2.13
2022-12-31T16:09:40.675Z,1.70
2022-12-31T16:12:16.407Z,1.70
2022-12-31T16:14:44.675Z,1.60
2022-12-31T16:17:28.170Z,2.17
2022-12-31T16:19:55.549Z,1.70
2022-12-31T16:22:28.253Z,1.90
2022-12-31T16:27:43.803Z,2.00
2022-12-31T16:30:25.770Z,2.00
2022-12-31T16:33:00.953Z,1.63
2022-12-31T16:35:30.191Z,2.23
2022-12-31T16:38:17.946Z,2.20
2022-12-31T16:41:16.729Z,2.33
2022-12-31T16:43:44.970Z,3.03
2022-12-31T16:46:14.000Z,1.70
2022-12-31T16:48:44.865Z,1.77
2022-12-31T16:51:18.438Z,1.67
2022-12-31T16:53:45.131Z,1.40
2022-12-31T16:56:26.051Z,1.80
2022-12-31T16:58:59.708Z,1.93
2022-12-31T17:01:30.303Z,1.90
2022-12-31T17:04:04.058Z,2.10
2022-12-31T17:06:33.361Z,2.73
2022-12-31T17:09:20.569Z,2.00
2022-12-31T17:11:52.452Z,1.90
2022-12-31T17:14:24.302Z,2.67
2022-12-31T17:17:07.405Z,2.40
2022-12-31T17:19:51.571Z,2.20
2022-12-31T17:22:36.995Z,2.67
2022-12-31T17:25:25.338Z,2.23
2022-12-31T17:28:02.046Z,2.30
2022-12-31T17:30:28.423Z,2.50
2022-12-31T17:33:12.817Z,2.23
2022-12-31T17:35:44.468Z,2.47
2022-12-31T17:38:22.935Z,2.70
2022-12-31T17:40:55.022Z,2.40
2022-12-31T17:43:23.718Z,2.50
2022-12-31T17:45:54.498Z,2.70
2022-12-31T17:48:24.827Z,3.40
2022-12-31T17:50:53.936Z,8.17
2022-12-31T17:53:20.940Z,10.87
2022-12-31T17:55:50.805Z,12.57
2022-12-31T17:58:29.898Z,13.50
2022-12-31T18:00:57.819Z,8.57
2022-12-31T18:03:24.764Z,10.23
2022-12-31T18:05:51.121Z,10.27
2022-12-31T18:08:17.400Z,10.57
2022-12-31T18:10:44.743Z,10.00
2022-12-31T18:13:19.104Z,11.37
2022-12-31T18:15:45.569Z,13.03
2022-12-31T18:18:26.135Z,13.87
2022-12-31T18:20:57.537Z,15.93
2022-12-31T18:23:27.601Z,16.60
2022-12-31T18:25:54.342Z,17.40
2022-12-31T18:28:20.708Z,17.40
2022-12-31T18:30:48.135Z,16.70
2022-12-31T18:33:19.809Z,17.80
2022-12-31T18:36:08.161Z,21.77
2022-12-31T18:38:33.566Z,20.40
2022-12-31T18:41:00.000Z,20.53
2022-12-31T18:43:26.365Z,22.97
2022-12-31T18:45:53.356Z,32.30
2022-12-31T18:48:19.734Z,27.70
2022-12-31T18:50:47.029Z,33.30
2022-12-31T18:53:22.710Z,32.70
2022-12-31T18:55:55.030Z,29.40
2022-12-31T18:58:21.608Z,27.97
2022-12-31T19:00:49.392Z,27.77
2022-12-31T19:03:18.543Z,28.33
2022-12-31T19:05:48.909Z,29.37
2022-12-31T19:08:19.168Z,28.00
2022-12-31T19:10:46.329Z,45.87
2022-12-31T19:13:13.991Z,46.77
2022-12-31T19:15:44.419Z,63.37
2022-12-31T19:18:11.074Z,58.03
2022-12-31T19:20:38.730Z,59.33
2022-12-31T19:23:05.552Z,64.50
2022-12-31T19:25:34.824Z,66.83
2022-12-31T19:28:01.996Z,63.30
2022-12-31T19:30:33.319Z,59.47
2022-12-31T19:33:00.672Z,57.53
2022-12-31T19:35:27.745Z,55.47
2022-12-31T19:37:55.027Z,53.80
2022-12-31T19:40:27.545Z,62.63
2022-12-31T19:42:56.619Z,46.73
2022-12-31T19:45:25.956Z,62.03
2022-12-31T19:47:53.703Z,59.33
2022-12-31T19:50:23.666Z,54.97
2022-12-31T19:52:52.596Z,56.70
2022-12-31T19:55:21.191Z,66.17
2022-12-31T19:57:48.615Z,65.97
2022-12-31T20:00:17.124Z,62.10
2022-12-31T20:02:45.291Z,74.40
2022-12-31T20:05:14.017Z,54.33
2022-12-31T20:07:40.502Z,66.07
2022-12-31T20:10:07.648Z,56.80
2022-12-31T20:12:37.858Z,55.97
2022-12-31T20:15:09.063Z,55.47
2022-12-31T20:17:36.429Z,55.40
2022-12-31T20:20:02.791Z,54.87
2022-12-31T20:22:29.328Z,56.60
2022-12-31T20:24:55.626Z,60.87
2022-12-31T20:27:21.885Z,59.60
2022-12-31T20:29:48.205Z,55.03
2022-12-31T20:32:14.608Z,58.07
2022-12-31T20:34:40.996Z,74.83
2022-12-31T20:37:07.280Z,66.70
2022-12-31T20:39:33.647Z,94.40
2022-12-31T20:41:59.980Z,133.80
2022-12-31T20:44:26.441Z,93.93
2022-12-31T20:46:52.789Z,99.47
2022-12-31T20:49:31.338Z,85.70
2022-12-31T20:52:05.468Z,60.03
2022-12-31T20:54:32.056Z,52.10
2022-12-31T20:57:00.027Z,52.03
2022-12-31T20:59:26.945Z,54.70
2022-12-31T21:02:20.527Z,54.83
2022-12-31T21:04:39.710Z,53.97
2022-12-31T21:07:06.232Z,57.27
2022-12-31T21:09:32.516Z,67.67
2022-12-31T21:12:18.036Z,71.87
2022-12-31T21:14:44.984Z,72.50
2022-12-31T21:17:11.369Z,65.73
2022-12-31T21:19:37.641Z,57.30
2022-12-31T21:22:03.937Z,63.07
2022-12-31T21:24:30.241Z,61.43
2022-12-31T21:26:56.570Z,58.20
2022-12-31T21:29:22.838Z,58.10
2022-12-31T21:31:49.727Z,52.13
2022-12-31T21:34:16.066Z,51.80
2022-12-31T21:36:42.351Z,47.50
2022-12-31T21:39:08.625Z,50.40
2022-12-31T21:41:52.884Z,47.43
2022-12-31T21:44:24.776Z,50.43
2022-12-31T21:47:36.545Z,45.77
2022-12-31T21:50:05.124Z,44.67
2022-12-31T21:52:33.801Z,44.80
2022-12-31T21:55:20.943Z,43.63
2022-12-31T21:58:24.008Z,48.27
2022-12-31T22:00:54.898Z,51.43
2022-12-31T22:03:27.630Z,57.37
2022-12-31T22:06:08.859Z,54.37
2022-12-31T22:08:35.178Z,51.20
2022-12-31T22:11:01.564Z,46.23
2022-12-31T22:13:28.189Z,51.27
2022-12-31T22:16:01.748Z,55.07
2022-12-31T22:18:32.201Z,76.67
2022-12-31T22:21:18.396Z,122.00
2022-12-31T22:23:47.840Z,133.67
2022-12-31T22:26:15.871Z,106.70
2022-12-31T22:28:43.653Z,95.83
2022-12-31T22:31:14.451Z,72.67
2022-12-31T22:33:41.230Z,59.53
2022-12-31T22:36:11.557Z,54.53
2022-12-31T22:38:37.834Z,54.33
2022-12-31T22:41:23.736Z,260.37
2022-12-31T22:43:58.506Z,57.97
2022-12-31T22:46:28.899Z,59.83
2022-12-31T22:48:57.918Z,60.30
2022-12-31T22:51:24.339Z,60.10
2022-12-31T22:53:50.624Z,60.70
2022-12-31T22:56:18.429Z,61.43
2022-12-31T22:58:45.146Z,60.40
2022-12-31T23:01:21.808Z,67.93
2022-12-31T23:03:50.688Z,92.17
2022-12-31T23:06:18.165Z,264.90
2022-12-31T23:09:03.019Z,259.13
2022-12-31T23:11:29.977Z,370.20
2022-12-31T23:14:14.877Z,378.47
2022-12-31T23:16:59.910Z,562.57
2022-12-31T23:20:04.912Z,602.03
2022-12-31T23:22:49.645Z,604.97
2022-12-31T23:25:16.091Z,555.40
2022-12-31T23:27:42.376Z,611.92
2022-12-31T23:30:09.380Z,515.03
2022-12-31T23:32:36.062Z,496.50
2022-12-31T23:35:09.374Z,497.87
2022-12-31T23:37:36.281Z,471.83
2022-12-31T23:40:02.566Z,472.70
2022-12-31T23:42:28.858Z,628.80
2022-12-31T23:44:55.132Z,754.77
2022-12-31T23:47:21.400Z,721.77
2022-12-31T23:49:47.753Z,763.57
2022-12-31T23:52:14.186Z,818.13
2022-12-31T23:54:40.505Z,784.30
2022-12-31T23:57:06.928Z,637.80
2022-12-31T23:59:33.219Z,626.67
